Flight Briefing for CPX791

Departure Arrival
Changi International Airport (WSSS)
Click to view FAA NOTAMS
Kingsford Smith International Airport (YSSY)
Click to view FAA NOTAMS
Departure Time Arrival Time
N/A N/A
Aircraft Distance
B747-400BCF 3402nm
Departure METAR Arrival METAR
WSSS 232330Z 17004KT 140V240 9999 FEW018 FEW020CB BKN300 29/25 Q1011 NOSIG YSSY 232330Z 31009KT CAVOK 19/11 Q1023 NOSIG
Suggested Route
ANIT7B ANITO/M082F310 B470 PKP/N0496F310 L511 RUPKA/N0492F330 L511 TARUN T20 BRM/N0488F350 G222 AGAGO/N0483F370 G222 PKS H319 TARAL Y59 RIVET


View recent IFR Routes data
Notes



Charts and Procedures

Charts for WSSS
No chart available
Charts for YSSY
No chart available

Windy.com Weather Map